createdAt,value
2019-03-06T00:00:43.953Z,6.03
2019-03-06T00:03:12.418Z,5.77
2019-03-06T00:05:41.047Z,4.87
2019-03-06T00:08:09.541Z,7.13
2019-03-06T00:10:38.071Z,7.43
2019-03-06T00:13:06.519Z,5.67
2019-03-06T00:15:35.084Z,6.10
2019-03-06T00:18:03.864Z,6.87
2019-03-06T00:20:33.376Z,6.10
2019-03-06T00:23:02.185Z,6.47
2019-03-06T00:25:30.812Z,5.90
2019-03-06T00:27:59.274Z,7.93
2019-03-06T00:30:27.944Z,6.03
2019-03-06T00:32:56.390Z,6.43
2019-03-06T00:35:32.511Z,6.37
2019-03-06T00:38:00.960Z,7.03
2019-03-06T00:40:39.948Z,6.47
2019-03-06T00:43:08.548Z,8.13
2019-03-06T00:45:37.030Z,7.10
2019-03-06T00:48:05.617Z,6.83
2019-03-06T00:50:34.075Z,7.43
2019-03-06T00:53:02.608Z,6.43
2019-03-06T00:55:31.111Z,6.80
2019-03-06T00:57:59.569Z,9.03
2019-03-06T01:00:28.098Z,8.37
2019-03-06T01:02:56.667Z,6.83
2019-03-06T01:05:25.305Z,8.10
2019-03-06T01:07:53.767Z,7.53
2019-03-06T01:10:22.431Z,7.20
2019-03-06T01:12:50.973Z,8.33
2019-03-06T01:15:19.871Z,8.10
2019-03-06T01:17:48.724Z,7.50
2019-03-06T01:20:17.248Z,9.73
2019-03-06T01:22:46.041Z,8.07
2019-03-06T01:25:18.653Z,7.70
2019-03-06T01:27:47.672Z,9.43
2019-03-06T01:30:19.473Z,8.67
2019-03-06T01:32:49.618Z,8.60
2019-03-06T01:35:31.925Z,8.50
2019-03-06T01:38:04.768Z,10.10
2019-03-06T01:40:51.314Z,8.80
2019-03-06T01:43:21.460Z,9.03
2019-03-06T01:45:49.920Z,11.03
2019-03-06T01:48:18.379Z,10.90
2019-03-06T01:50:46.878Z,9.17
2019-03-06T01:53:15.333Z,9.97
2019-03-06T01:55:43.782Z,10.77
2019-03-06T01:58:12.288Z,10.97
2019-03-06T02:00:41.098Z,11.27
2019-03-06T02:03:09.551Z,12.43
2019-03-06T02:05:38.052Z,11.97
2019-03-06T02:08:06.796Z,12.13
2019-03-06T02:10:35.318Z,12.57
2019-03-06T02:13:04.084Z,12.23
2019-03-06T02:15:32.546Z,13.90
2019-03-06T02:18:01.018Z,12.10
2019-03-06T02:20:29.514Z,13.33
2019-03-06T02:22:58.987Z,13.13
2019-03-06T02:25:27.695Z,12.63
2019-03-06T02:27:56.201Z,12.70
2019-03-06T02:30:25.785Z,12.30
2019-03-06T02:32:54.235Z,13.73
2019-03-06T02:35:22.756Z,12.60
2019-03-06T02:37:51.226Z,13.43
2019-03-06T02:40:19.688Z,12.40
2019-03-06T02:42:48.170Z,13.70
2019-03-06T02:45:20.691Z,13.23
2019-03-06T02:47:57.275Z,12.90
2019-03-06T02:50:25.983Z,13.40
2019-03-06T02:52:54.449Z,13.63
2019-03-06T02:55:22.945Z,13.70
2019-03-06T02:58:09.528Z,14.00
2019-03-06T03:00:39.846Z,15.03
2019-03-06T03:03:15.647Z,12.63
2019-03-06T03:05:45.817Z,13.27
2019-03-06T03:08:14.279Z,13.27
2019-03-06T03:10:43.317Z,13.33
2019-03-06T03:13:11.799Z,13.97
2019-03-06T03:15:40.259Z,13.43
2019-03-06T03:18:08.713Z,13.63
2019-03-06T03:20:37.216Z,14.70
2019-03-06T03:23:05.956Z,14.20
2019-03-06T03:25:34.427Z,13.87
2019-03-06T03:28:02.943Z,16.07
2019-03-06T03:30:31.429Z,14.90
2019-03-06T03:32:59.874Z,14.50
2019-03-06T03:35:28.375Z,13.87
2019-03-06T03:37:57.186Z,17.80
2019-03-06T03:40:25.677Z,16.50
2019-03-06T03:42:54.660Z,14.93
2019-03-06T03:45:23.117Z,16.43
2019-03-06T03:47:51.595Z,15.10
2019-03-06T03:50:20.114Z,15.60
2019-03-06T03:52:48.573Z,15.80
2019-03-06T03:55:17.978Z,16.00
2019-03-06T03:57:46.553Z,15.07
2019-03-06T04:00:22.372Z,17.40
2019-03-06T04:02:51.374Z,15.83
2019-03-06T04:05:19.840Z,15.67
2019-03-06T04:07:48.306Z,16.77
2019-03-06T04:10:16.863Z,15.00
2019-03-06T04:12:45.328Z,14.57
2019-03-06T04:15:17.689Z,17.30
2019-03-06T04:17:46.199Z,18.17
2019-03-06T04:20:15.617Z,17.80
2019-03-06T04:22:44.074Z,17.00
2019-03-06T04:25:12.841Z,15.73
2019-03-06T04:27:41.380Z,16.17
2019-03-06T04:30:15.903Z,17.77
2019-03-06T04:32:44.386Z,15.27
2019-03-06T04:35:12.988Z,16.80
2019-03-06T04:37:41.456Z,17.20
2019-03-06T04:40:11.705Z,16.50
2019-03-06T04:42:40.170Z,18.57
2019-03-06T04:45:13.700Z,15.60
2019-03-06T04:47:42.180Z,17.50
2019-03-06T04:50:12.860Z,17.70
2019-03-06T04:52:41.668Z,16.50
2019-03-06T04:55:11.424Z,17.30
2019-03-06T04:57:41.445Z,16.20
2019-03-06T05:00:21.061Z,17.70
2019-03-06T05:02:49.814Z,16.73
2019-03-06T05:05:18.270Z,17.53
2019-03-06T05:07:46.760Z,18.27
2019-03-06T05:10:15.395Z,19.10
2019-03-06T05:12:43.865Z,18.23
2019-03-06T05:15:15.072Z,16.27
2019-03-06T05:18:00.440Z,16.93
2019-03-06T05:20:29.290Z,18.43
2019-03-06T05:22:57.760Z,17.70
2019-03-06T05:25:27.262Z,18.50
2019-03-06T05:27:55.783Z,17.40
2019-03-06T05:30:25.888Z,17.40
2019-03-06T05:32:57.537Z,16.47
2019-03-06T05:35:29.214Z,18.50
2019-03-06T05:38:31.630Z,18.73
2019-03-06T05:41:00.146Z,18.23
2019-03-06T05:43:29.280Z,17.77
2019-03-06T05:45:57.736Z,17.57
2019-03-06T05:48:26.217Z,17.37
2019-03-06T05:50:54.676Z,18.47
2019-03-06T05:53:23.140Z,17.13
2019-03-06T05:55:51.629Z,15.63
2019-03-06T05:58:20.090Z,17.20
2019-03-06T06:00:48.558Z,15.97
2019-03-06T06:03:17.070Z,16.13
2019-03-06T06:05:45.543Z,15.30
2019-03-06T06:08:14.015Z,20.63
2019-03-06T06:10:42.519Z,18.47
2019-03-06T06:13:10.985Z,19.30
2019-03-06T06:15:39.461Z,16.20
2019-03-06T06:18:07.969Z,17.33
2019-03-06T06:20:36.446Z,16.90
2019-03-06T06:23:09.343Z,17.47
2019-03-06T06:25:37.864Z,18.57
2019-03-06T06:28:07.416Z,17.27
2019-03-06T06:30:35.885Z,16.83
2019-03-06T06:33:04.412Z,18.10
2019-03-06T06:35:32.941Z,16.70
2019-03-06T06:38:01.408Z,18.27
2019-03-06T06:40:29.920Z,17.43
2019-03-06T06:42:58.392Z,17.47
2019-03-06T06:45:26.861Z,18.70
2019-03-06T06:48:18.665Z,19.80
2019-03-06T06:51:01.561Z,19.93
2019-03-06T06:53:38.262Z,18.70
2019-03-06T06:56:34.169Z,19.40
2019-03-06T06:59:06.721Z,18.80
2019-03-06T07:02:14.315Z,18.23
2019-03-06T07:05:26.277Z,19.40
2019-03-06T07:07:56.383Z,17.60
2019-03-06T07:10:42.724Z,17.10
2019-03-06T07:13:12.844Z,17.83
2019-03-06T07:15:59.174Z,16.63
2019-03-06T07:18:29.282Z,17.47
2019-03-06T07:21:11.500Z,18.53
2019-03-06T07:23:47.351Z,17.30
2019-03-06T07:26:29.288Z,18.13
2019-03-06T07:29:08.377Z,18.40
2019-03-06T07:31:39.144Z,17.80
2019-03-06T07:34:25.417Z,17.27
2019-03-06T07:37:01.389Z,17.57
2019-03-06T07:39:32.164Z,19.50
2019-03-06T07:42:02.381Z,19.20
2019-03-06T07:44:48.690Z,16.20
2019-03-06T07:47:18.815Z,19.83
2019-03-06T07:49:55.599Z,23.27
2019-03-06T07:52:25.691Z,21.07
2019-03-06T07:54:58.834Z,18.53
2019-03-06T07:57:29.140Z,17.80
2019-03-06T07:59:57.602Z,17.50
2019-03-06T08:02:38.280Z,16.50
2019-03-06T08:05:11.296Z,17.67
2019-03-06T08:07:39.763Z,18.53
2019-03-06T08:10:15.310Z,19.60
2019-03-06T08:12:45.413Z,16.90
2019-03-06T08:15:15.580Z,17.53
2019-03-06T08:17:48.526Z,16.87
2019-03-06T08:20:36.529Z,18.70
2019-03-06T08:23:18.947Z,18.27
2019-03-06T08:25:49.074Z,16.80
2019-03-06T08:28:17.518Z,16.90
2019-03-06T08:30:50.311Z,17.30
2019-03-06T08:33:20.114Z,18.60
2019-03-06T08:35:48.594Z,15.87
2019-03-06T08:38:17.088Z,16.47
2019-03-06T08:40:45.559Z,17.60
2019-03-06T08:43:14.035Z,16.40
2019-03-06T08:45:49.758Z,17.47
2019-03-06T08:48:22.608Z,18.93
2019-03-06T08:50:58.387Z,16.10
2019-03-06T08:53:28.507Z,17.63
2019-03-06T08:55:58.922Z,17.07
2019-03-06T08:58:29.076Z,16.87
2019-03-06T09:01:11.112Z,17.10
2019-03-06T09:03:41.249Z,16.67
2019-03-06T09:06:11.533Z,17.63
2019-03-06T09:08:53.693Z,16.87
2019-03-06T09:11:23.811Z,17.40
2019-03-06T09:13:56.919Z,18.10
2019-03-06T09:16:32.887Z,17.80
2019-03-06T09:19:05.921Z,16.63
2019-03-06T09:21:36.032Z,16.90
2019-03-06T09:24:21.880Z,18.03
2019-03-06T09:26:59.552Z,17.33
2019-03-06T09:29:32.236Z,17.70
2019-03-06T09:32:08.453Z,16.90
2019-03-06T09:34:50.752Z,17.80
2019-03-06T09:37:33.037Z,18.03
2019-03-06T09:40:12.128Z,16.77
2019-03-06T09:42:42.225Z,18.00
2019-03-06T09:45:14.914Z,15.13
2019-03-06T09:47:54.422Z,16.30
2019-03-06T09:50:24.523Z,15.63
2019-03-06T09:53:10.609Z,15.50
2019-03-06T09:55:46.859Z,13.83
2019-03-06T09:58:28.753Z,13.30
2019-03-06T10:01:11.390Z,13.63
2019-03-06T10:03:41.539Z,13.20
2019-03-06T10:06:26.649Z,12.63
2019-03-06T10:09:14.800Z,12.63
2019-03-06T10:11:44.904Z,12.93
2019-03-06T10:14:20.692Z,13.50
2019-03-06T10:16:53.594Z,14.60
2019-03-06T10:19:23.896Z,13.23
2019-03-06T10:21:52.435Z,15.40
2019-03-06T10:24:20.900Z,13.30
2019-03-06T10:26:49.371Z,13.00
2019-03-06T10:29:17.878Z,13.63
2019-03-06T10:31:46.366Z,14.70
2019-03-06T10:34:14.824Z,14.93
2019-03-06T10:36:43.579Z,13.90
2019-03-06T10:39:14.418Z,13.00
2019-03-06T10:41:42.914Z,15.37
2019-03-06T10:44:11.669Z,14.20
2019-03-06T10:46:40.219Z,12.57
2019-03-06T10:49:08.657Z,13.73
2019-03-06T10:51:37.190Z,12.33
2019-03-06T10:54:05.883Z,12.53
2019-03-06T10:56:34.446Z,11.37
2019-03-06T10:59:03.029Z,11.60
2019-03-06T11:01:31.583Z,11.50
2019-03-06T11:04:01.699Z,11.57
2019-03-06T11:06:30.370Z,12.20
2019-03-06T11:09:00.484Z,12.60
2019-03-06T11:11:28.969Z,12.23
2019-03-06T11:14:05.944Z,11.43
2019-03-06T11:16:27.907Z,13.00
2019-03-06T11:18:57.946Z,11.00
2019-03-06T11:21:26.461Z,11.20
2019-03-06T11:23:55.064Z,10.97
2019-03-06T11:26:23.523Z,10.20
2019-03-06T11:28:52.061Z,11.20
2019-03-06T11:31:20.796Z,10.63
2019-03-06T11:33:49.426Z,10.70
2019-03-06T11:36:18.656Z,9.77
2019-03-06T11:38:48.152Z,9.47
2019-03-06T11:41:16.697Z,9.93
2019-03-06T11:43:45.198Z,8.53
2019-03-06T11:46:14.106Z,9.57
2019-03-06T11:48:42.704Z,8.53
2019-03-06T11:51:11.227Z,8.80
2019-03-06T11:53:39.758Z,8.83
2019-03-06T11:56:08.365Z,9.30
2019-03-06T11:58:36.887Z,9.10
2019-03-06T12:01:08.666Z,10.30
2019-03-06T12:03:37.143Z,9.43
2019-03-06T12:06:07.132Z,9.30
2019-03-06T12:08:35.675Z,11.00
2019-03-06T12:11:04.289Z,9.60
2019-03-06T12:13:32.944Z,9.13
2019-03-06T12:16:01.409Z,9.23
2019-03-06T12:18:29.960Z,8.63
2019-03-06T12:20:59.144Z,7.83
2019-03-06T12:23:27.613Z,9.53
2019-03-06T12:25:56.104Z,7.10
2019-03-06T12:28:24.598Z,8.57
2019-03-06T12:30:53.055Z,8.03
2019-03-06T12:33:24.340Z,9.57
2019-03-06T12:35:52.945Z,8.53
2019-03-06T12:38:21.583Z,7.30
2019-03-06T12:40:50.325Z,8.50
2019-03-06T12:43:18.816Z,7.87
2019-03-06T12:46:08.623Z,8.83
2019-03-06T12:48:37.113Z,7.77
2019-03-06T12:51:05.875Z,8.40
2019-03-06T12:53:34.373Z,9.37
2019-03-06T12:56:03.141Z,9.50
2019-03-06T12:58:31.616Z,9.43
2019-03-06T13:01:00.080Z,5.90
2019-03-06T13:03:28.589Z,8.03
2019-03-06T13:05:57.080Z,6.37
2019-03-06T13:08:25.535Z,9.37
2019-03-06T13:10:54.221Z,8.73
2019-03-06T13:13:22.683Z,7.90
2019-03-06T13:15:51.238Z,9.17
2019-03-06T13:18:19.736Z,7.07
2019-03-06T13:20:48.193Z,7.30
2019-03-06T13:23:16.727Z,8.27
2019-03-06T13:25:45.205Z,8.50
2019-03-06T13:28:13.663Z,8.07
2019-03-06T13:30:42.208Z,7.33
2019-03-06T13:33:21.362Z,7.73
2019-03-06T13:35:49.814Z,7.13
2019-03-06T13:38:18.359Z,7.20
2019-03-06T13:40:46.930Z,8.10
2019-03-06T13:43:16.370Z,8.27
2019-03-06T13:45:45.007Z,8.40
2019-03-06T13:48:13.487Z,8.50
2019-03-06T13:50:41.965Z,7.53
2019-03-06T13:53:10.447Z,9.93
2019-03-06T13:55:40.638Z,10.87
2019-03-06T13:58:09.146Z,11.73
2019-03-06T14:00:37.657Z,7.77
2019-03-06T14:03:06.483Z,8.27
2019-03-06T14:05:34.933Z,8.87
2019-03-06T14:08:04.175Z,9.10
2019-03-06T14:10:32.708Z,9.03
2019-03-06T14:13:01.176Z,8.33
2019-03-06T14:15:29.852Z,10.60
2019-03-06T14:17:58.485Z,8.80
2019-03-06T14:20:27.095Z,7.93
2019-03-06T14:22:55.857Z,9.43
2019-03-06T14:25:24.696Z,9.63
2019-03-06T14:27:53.232Z,9.00
2019-03-06T14:30:27.803Z,8.30
2019-03-06T14:32:56.338Z,8.73
2019-03-06T14:35:25.377Z,8.27
2019-03-06T14:37:54.143Z,6.80
2019-03-06T14:40:34.648Z,6.90
2019-03-06T14:43:06.362Z,6.60
2019-03-06T14:45:34.898Z,6.40
2019-03-06T14:48:03.526Z,4.37
2019-03-06T14:50:32.099Z,6.87
2019-03-06T14:53:00.899Z,5.93
2019-03-06T14:55:29.360Z,6.50
2019-03-06T14:57:57.853Z,5.80
2019-03-06T15:00:26.322Z,6.97
2019-03-06T15:02:54.782Z,8.63
2019-03-06T15:05:23.445Z,6.50
2019-03-06T15:07:52.277Z,6.28
2019-03-06T15:10:21.018Z,6.03
2019-03-06T15:12:49.511Z,5.70
2019-03-06T15:15:19.218Z,5.73
2019-03-06T15:17:48.034Z,6.30
2019-03-06T15:20:21.102Z,5.57
2019-03-06T15:22:56.789Z,6.00
2019-03-06T15:25:27.624Z,5.23
2019-03-06T15:27:56.147Z,6.90
2019-03-06T15:30:24.635Z,7.00
2019-03-06T15:32:53.197Z,6.40
2019-03-06T15:35:22.057Z,5.80
2019-03-06T15:37:50.574Z,6.70
2019-03-06T15:40:32.179Z,5.77
2019-03-06T15:43:00.722Z,8.60
2019-03-06T15:45:32.773Z,8.27
2019-03-06T15:48:01.358Z,7.83
2019-03-06T15:50:29.821Z,10.07
2019-03-06T15:52:58.306Z,10.93
2019-03-06T15:55:28.238Z,10.37
2019-03-06T15:57:56.950Z,9.10
2019-03-06T16:00:31.078Z,5.93
2019-03-06T16:02:59.574Z,6.37
2019-03-06T16:05:28.105Z,8.00
2019-03-06T16:07:58.094Z,6.37
2019-03-06T16:10:27.241Z,6.33
2019-03-06T16:12:55.697Z,8.53
2019-03-06T16:15:26.370Z,6.37
2019-03-06T16:17:55.413Z,7.00
2019-03-06T16:20:23.958Z,6.40
2019-03-06T16:22:52.502Z,5.73
2019-03-06T16:25:21.633Z,6.40
2019-03-06T16:27:50.171Z,5.17
2019-03-06T16:30:20.160Z,6.00
2019-03-06T16:32:48.682Z,5.63
2019-03-06T16:35:17.812Z,4.90
2019-03-06T16:37:46.259Z,5.07
2019-03-06T16:40:20.604Z,6.40
2019-03-06T16:42:49.413Z,6.33
2019-03-06T16:45:25.795Z,4.97
2019-03-06T16:47:54.669Z,7.07
2019-03-06T16:50:23.737Z,8.50
2019-03-06T16:52:52.387Z,6.40
2019-03-06T16:55:21.985Z,5.13
2019-03-06T16:57:50.518Z,6.10
2019-03-06T17:00:33.273Z,5.10
2019-03-06T17:03:04.047Z,5.57
2019-03-06T17:05:32.601Z,3.50
2019-03-06T17:08:01.669Z,5.20
2019-03-06T17:10:32.047Z,4.20
2019-03-06T17:13:00.580Z,4.63
2019-03-06T17:15:30.922Z,4.50
2019-03-06T17:17:59.521Z,6.40
2019-03-06T17:20:29.782Z,4.23
2019-03-06T17:22:58.848Z,4.70
2019-03-06T17:25:28.376Z,4.33
2019-03-06T17:27:57.029Z,5.00
2019-03-06T17:30:33.526Z,4.60
2019-03-06T17:33:04.230Z,5.63
2019-03-06T17:35:33.422Z,4.00
2019-03-06T17:38:01.989Z,4.13
2019-03-06T17:40:30.817Z,4.10
2019-03-06T17:42:59.346Z,4.40
2019-03-06T17:45:28.319Z,3.90
2019-03-06T17:47:56.876Z,4.80
2019-03-06T17:50:25.704Z,4.60
2019-03-06T17:52:54.262Z,4.80
2019-03-06T17:55:22.803Z,9.20
2019-03-06T17:57:51.367Z,3.80
2019-03-06T18:00:26.228Z,6.30
2019-03-06T18:02:55.058Z,5.40
2019-03-06T18:05:23.592Z,5.40
2019-03-06T18:07:52.082Z,5.60
2019-03-06T18:10:20.613Z,6.30
2019-03-06T18:12:49.080Z,5.33
2019-03-06T18:15:20.257Z,6.30
2019-03-06T18:17:48.801Z,7.13
2019-03-06T18:20:18.106Z,5.87
2019-03-06T18:22:46.682Z,6.93
2019-03-06T18:25:18.326Z,6.37
2019-03-06T18:27:47.130Z,7.40
2019-03-06T18:30:18.518Z,8.20
2019-03-06T18:32:46.984Z,6.90
2019-03-06T18:35:22.322Z,6.27
2019-03-06T18:37:50.965Z,6.60
2019-03-06T18:40:20.671Z,7.70
2019-03-06T18:42:49.296Z,7.70
2019-03-06T18:45:19.510Z,8.73
2019-03-06T18:47:48.278Z,7.10
2019-03-06T18:50:18.945Z,8.20
2019-03-06T18:52:47.738Z,8.37
2019-03-06T18:55:17.266Z,8.77
2019-03-06T18:57:45.833Z,8.80
2019-03-06T19:00:20.075Z,10.63
2019-03-06T19:02:48.547Z,9.80
2019-03-06T19:05:18.474Z,8.30
2019-03-06T19:07:47.108Z,9.40
2019-03-06T19:10:17.934Z,10.07
2019-03-06T19:12:46.502Z,9.80
2019-03-06T19:15:22.524Z,8.97
2019-03-06T19:17:50.987Z,8.93
2019-03-06T19:20:23.055Z,9.07
2019-03-06T19:22:52.252Z,9.60
2019-03-06T19:25:20.872Z,9.57
2019-03-06T19:27:49.661Z,9.97
2019-03-06T19:30:21.294Z,9.07
2019-03-06T19:32:49.866Z,9.20
2019-03-06T19:35:20.101Z,9.33
2019-03-06T19:37:48.810Z,9.80
2019-03-06T19:40:18.419Z,9.43
2019-03-06T19:42:47.172Z,9.40
2019-03-06T19:45:17.849Z,9.00
2019-03-06T19:47:46.487Z,9.60
2019-03-06T19:50:26.113Z,8.07
2019-03-06T19:52:56.100Z,7.97
2019-03-06T19:55:26.016Z,9.00
2019-03-06T19:57:56.187Z,9.60
2019-03-06T20:00:29.642Z,8.97
2019-03-06T20:02:59.678Z,9.37
2019-03-06T20:05:35.153Z,8.83
2019-03-06T20:08:06.743Z,12.03
2019-03-06T20:10:35.339Z,9.73
2019-03-06T20:13:04.053Z,9.57
2019-03-06T20:15:32.642Z,8.90
2019-03-06T20:18:01.284Z,10.00
2019-03-06T20:20:29.819Z,11.07
2019-03-06T20:22:58.887Z,9.23
2019-03-06T20:25:27.454Z,9.80
2019-03-06T20:27:56.094Z,10.00
2019-03-06T20:30:25.884Z,9.10
2019-03-06T20:32:54.582Z,9.53
2019-03-06T20:35:25.347Z,8.87
2019-03-06T20:37:54.282Z,8.60
2019-03-06T20:40:23.648Z,8.40
2019-03-06T20:42:52.182Z,8.70
2019-03-06T20:45:20.787Z,8.27
2019-03-06T20:47:49.549Z,8.70
2019-03-06T20:50:19.259Z,7.30
2019-03-06T20:52:47.731Z,7.30
2019-03-06T20:55:18.151Z,7.77
2019-03-06T20:57:46.748Z,7.50
2019-03-06T21:00:23.548Z,8.57
2019-03-06T21:02:52.059Z,7.40
2019-03-06T21:05:20.587Z,7.40
2019-03-06T21:07:49.094Z,7.60
2019-03-06T21:10:18.554Z,7.53
2019-03-06T21:12:47.010Z,7.70
2019-03-06T21:15:18.241Z,6.60
2019-03-06T21:17:46.782Z,7.90
2019-03-06T21:20:20.159Z,7.30
2019-03-06T21:22:48.623Z,7.73
2019-03-06T21:25:19.843Z,6.97
2019-03-06T21:27:48.572Z,7.10
2019-03-06T21:30:24.347Z,7.00
2019-03-06T21:32:52.784Z,7.57
2019-03-06T21:35:21.318Z,7.77
2019-03-06T21:37:49.817Z,7.03
2019-03-06T21:40:18.290Z,7.73
2019-03-06T21:42:47.109Z,8.20
2019-03-06T21:45:15.679Z,7.07
2019-03-06T21:47:44.136Z,6.60
2019-03-06T21:50:15.245Z,7.43
2019-03-06T21:52:43.713Z,6.37
2019-03-06T21:55:13.845Z,7.60
2019-03-06T21:57:42.721Z,6.57
2019-03-06T22:00:22.540Z,7.03
2019-03-06T22:02:51.010Z,6.43
2019-03-06T22:05:19.600Z,6.73
2019-03-06T22:07:50.587Z,6.80
2019-03-06T22:10:19.334Z,7.70
2019-03-06T22:12:47.792Z,6.47
2019-03-06T22:15:18.501Z,7.60
2019-03-06T22:17:46.980Z,6.67
2019-03-06T22:20:15.887Z,6.07
2019-03-06T22:22:44.388Z,6.90
2019-03-06T22:25:15.359Z,6.00
2019-03-06T22:27:43.884Z,6.33
2019-03-06T22:30:18.250Z,7.00
2019-03-06T22:32:46.771Z,6.53
2019-03-06T22:35:15.231Z,6.37
2019-03-06T22:37:43.717Z,6.53
2019-03-06T22:40:17.256Z,5.53
2019-03-06T22:42:45.699Z,5.70
2019-03-06T22:45:19.783Z,5.90
2019-03-06T22:47:48.496Z,6.03
2019-03-06T22:50:17.989Z,5.60
2019-03-06T22:52:46.547Z,5.63
2019-03-06T22:55:16.748Z,6.80
2019-03-06T22:57:45.210Z,5.80
2019-03-06T23:00:31.795Z,5.33
2019-03-06T23:03:00.624Z,6.23
2019-03-06T23:05:31.222Z,5.40
2019-03-06T23:07:59.710Z,6.57
2019-03-06T23:10:28.177Z,6.13
2019-03-06T23:12:58.639Z,4.93
2019-03-06T23:15:26.933Z,5.87
2019-03-06T23:17:57.027Z,5.13
2019-03-06T23:20:26.040Z,6.40
2019-03-06T23:22:54.526Z,5.60
2019-03-06T23:25:22.986Z,5.67
2019-03-06T23:27:51.434Z,5.40
2019-03-06T23:30:20.005Z,5.80
2019-03-06T23:32:48.740Z,6.30
2019-03-06T23:35:17.199Z,5.80
2019-03-06T23:37:45.695Z,5.83
2019-03-06T23:40:14.147Z,5.60
2019-03-06T23:42:42.663Z,5.20
2019-03-06T23:45:12.490Z,5.93
2019-03-06T23:47:41.288Z,5.10
2019-03-06T23:50:11.284Z,5.90
2019-03-06T23:52:57.814Z,5.53
2019-03-06T23:55:27.976Z,5.63
2019-03-06T23:57:56.710Z,5.70
